Time;durP1;ratioP1;P1;durP2;ratioP2;P2;SDS_P1;SDS_P2;PMS_P1;PMS_P2;Temp;Humidity;BMP_temperature;BMP_pressure;BME280_temperature;BME280_humidity;BME280_pressure;Samples;Min_cycle;Max_cycle;Signal;HPM_P1;HPM_P2
2022/04/16 00:01:42;;;;;;;21.33;11.52;;;6.40;99.90;;;;;;5115863;28;20124;-77
2022/04/16 00:04:09;;;;;;;18.55;9.80;;;6.30;99.90;;;;;;5116103;28;20046;-79
2022/04/16 00:06:35;;;;;;;;;;;6.30;99.90;;;;;;5116247;28;20076;-78
2022/04/16 00:09:01;;;;;;;23.58;12.02;;;6.30;99.90;;;;;;5115150;28;19924;-76
2022/04/16 00:11:27;;;;;;;27.10;12.27;;;6.20;99.90;;;;;;5115535;28;20059;-79
2022/04/16 00:13:52;;;;;;;18.38;11.32;;;6.20;99.90;;;;;;5115549;28;20373;-79
2022/04/16 00:16:18;;;;;;;20.40;12.30;;;6.20;99.90;;;;;;5115548;28;20043;-79
2022/04/16 00:18:48;;;;;;;23.95;13.02;;;6.20;99.90;;;;;;5115631;28;20043;-77
2022/04/16 00:21:13;;;;;;;25.27;13.20;;;6.20;99.90;;;;;;5115112;28;20118;-77
2022/04/16 00:23:41;;;;;;;26.48;14.20;;;6.10;99.90;;;;;;5116122;27;20559;-80
2022/04/16 00:26:07;;;;;;;27.55;13.77;;;6.20;99.90;;;;;;5115418;28;20094;-78
2022/04/16 00:28:35;;;;;;;24.90;13.07;;;6.20;99.90;;;;;;5114495;28;20050;-77
2022/04/16 00:31:01;;;;;;;25.35;14.38;;;6.10;99.90;;;;;;5115296;28;20430;-77
2022/04/16 00:33:27;;;;;;;26.70;13.07;;;6.10;99.90;;;;;;5115229;28;20036;-78
2022/04/16 00:35:53;;;;;;;21.13;13.00;;;6.10;99.90;;;;;;5115149;28;20043;-78
2022/04/16 00:38:19;;;;;;;26.30;15.10;;;6.10;99.90;;;;;;5115677;28;20496;-78
2022/04/16 00:40:44;;;;;;;25.35;14.45;;;6.10;99.90;;;;;;5115180;28;20051;-78
2022/04/16 00:43:27;;;;;;;24.13;13.93;;;6.00;99.90;;;;;;5115019;28;20129;-79
2022/04/16 00:45:53;;;;;;;23.20;13.43;;;6.00;99.90;;;;;;5115114;28;20047;-79
2022/04/16 00:48:20;;;;;;;26.80;14.03;;;6.00;99.90;;;;;;5113784;28;20043;-78
2022/04/16 00:50:49;;;;;;;25.52;14.45;;;6.10;99.90;;;;;;5114852;28;20289;-79
2022/04/16 00:53:16;;;;;;;30.42;15.23;;;6.10;99.90;;;;;;5114792;28;20043;-78
2022/04/16 00:55:42;;;;;;;24.30;15.05;;;6.00;99.90;;;;;;5114822;28;20055;-80
2022/04/16 00:58:08;;;;;;;25.65;15.43;;;6.10;99.90;;;;;;5113654;28;20051;-79
2022/04/16 01:00:34;;;;;;;32.20;15.93;;;6.10;99.90;;;;;;5114942;28;20383;-80
2022/04/16 01:02:59;;;;;;;27.83;16.08;;;6.20;99.90;;;;;;5114588;28;20036;-78
2022/04/16 01:05:25;;;;;;;27.42;15.45;;;6.10;99.90;;;;;;5114661;28;20112;-79
2022/04/16 01:07:56;;;;;;;28.85;16.30;;;6.20;99.90;;;;;;5114595;28;20036;-79
2022/04/16 01:10:26;;;;;;;29.70;15.88;;;6.20;99.90;;;;;;5114966;28;20047;-79
2022/04/16 01:13:00;;;;;;;29.80;16.10;;;6.20;99.90;;;;;;5114773;28;20095;-78
2022/04/16 01:15:29;;;;;;;31.92;17.58;;;6.20;99.90;;;;;;5113718;28;20414;-80
2022/04/16 01:17:56;;;;;;;32.70;16.52;;;6.30;99.90;;;;;;5114442;28;20047;-78
2022/04/16 01:20:22;;;;;;;33.70;17.10;;;6.30;99.90;;;;;;5114415;28;20047;-78
2022/04/16 01:22:51;;;;;;;34.17;17.23;;;6.30;99.90;;;;;;5114772;28;20126;-79
2022/04/16 01:25:18;;;;;;;33.00;17.17;;;6.20;99.90;;;;;;5114339;28;20277;-77
2022/04/16 01:27:46;;;;;;;30.77;16.88;;;6.30;99.90;;;;;;5114322;28;20039;-77
2022/04/16 01:30:16;;;;;;;33.13;18.13;;;6.30;99.90;;;;;;5114300;28;20047;-79
2022/04/16 01:32:42;;;;;;;30.88;16.73;;;6.30;99.90;;;;;;5113565;28;20043;-79
2022/04/16 01:35:09;;;;;;;34.60;17.38;;;6.40;99.90;;;;;;5114245;28;20124;-77
2022/04/16 01:37:35;;;;;;;34.08;18.05;;;6.40;99.90;;;;;;5114214;28;20066;-79
2022/04/16 01:40:02;;;;;;;32.05;16.92;;;6.40;99.90;;;;;;5113980;28;20512;-77
2022/04/16 01:42:29;;;;;;;;;;;6.50;99.90;;;;;;5114619;28;20070;-77
2022/04/16 01:44:56;;;;;;;33.33;16.55;;;6.50;99.90;;;;;;5114167;28;19919;-79
2022/04/16 01:47:21;;;;;;;29.77;16.75;;;6.50;99.90;;;;;;5114145;28;20053;-78
2022/04/16 01:49:47;;;;;;;37.33;19.15;;;6.60;99.90;;;;;;5113866;28;20044;-78
2022/04/16 01:52:13;;;;;;;37.20;18.33;;;6.60;99.90;;;;;;5114077;28;20101;-78
2022/04/16 01:54:40;;;;;;;34.42;18.42;;;6.60;99.90;;;;;;5112800;28;20039;-78
2022/04/16 01:57:05;;;;;;;38.63;19.30;;;6.60;99.90;;;;;;5114302;28;20360;-77
2022/04/16 01:59:31;;;;;;;40.53;18.42;;;6.70;99.90;;;;;;5130158;28;20105;-77
2022/04/16 02:01:56;;;;;;;33.72;18.73;;;6.70;99.90;;;;;;5113754;28;20126;-78
2022/04/16 02:04:22;;;;;;;41.15;20.42;;;6.70;99.90;;;;;;5114358;28;20071;-78
2022/04/16 02:06:50;;;;;;;34.72;19.45;;;6.70;99.90;;;;;;5113928;28;20047;-78
2022/04/16 02:09:16;;;;;;;41.00;19.10;;;6.70;99.90;;;;;;5113919;28;20395;-77
2022/04/16 02:11:42;;;;;;;34.78;18.35;;;6.70;99.90;;;;;;5114134;28;20066;-77
2022/04/16 02:14:07;;;;;;;34.65;19.33;;;6.60;99.90;;;;;;5113827;28;20035;-79
2022/04/16 02:16:33;;;;;;;38.67;18.52;;;6.60;99.90;;;;;;5113865;28;20044;-76
2022/04/16 02:19:00;;;;;;;38.28;18.90;;;6.60;99.90;;;;;;5113574;28;20499;-79
2022/04/16 02:21:27;;;;;;;40.42;20.30;;;6.50;99.90;;;;;;5113818;28;20058;-77
2022/04/16 02:23:53;;;;;;;36.08;19.13;;;6.50;99.90;;;;;;5113792;28;20086;-79
2022/04/16 02:26:20;;;;;;;35.47;18.23;;;6.40;99.90;;;;;;5113866;28;20079;-77
2022/04/16 02:28:48;;;;;;;38.03;19.67;;;6.40;99.90;;;;;;5113715;28;20082;-79
2022/04/16 02:31:14;;;;;;;36.55;18.98;;;6.30;99.90;;;;;;5113679;28;20051;-79
2022/04/16 02:33:40;;;;;;;37.90;19.50;;;6.30;99.90;;;;;;5113685;28;20054;-79
2022/04/16 02:36:07;;;;;;;38.30;19.95;;;6.20;99.90;;;;;;5113628;28;20039;-78
2022/04/16 02:38:36;;;;;;;36.13;19.75;;;6.20;99.90;;;;;;5112713;28;20071;-78
2022/04/16 02:41:01;;;;;;;38.55;20.25;;;6.00;99.90;;;;;;5113540;28;20043;-77
2022/04/16 02:43:27;;;;;;;42.00;20.88;;;6.00;99.90;;;;;;5114773;28;20074;-78
2022/04/16 02:48:37;;;;;;;42.88;21.27;;;6.00;99.90;;;;;;5117283;28;20086;-77
2022/04/16 02:51:02;;;;;;;42.00;21.10;;;6.00;99.90;;;;;;5117249;28;20454;-77
2022/04/16 02:53:29;;;;;;;41.58;19.90;;;5.90;99.90;;;;;;5117381;28;20050;-77
2022/04/16 02:55:55;;;;;;;37.90;19.60;;;5.90;99.90;;;;;;5117140;27;20089;-76
2022/04/16 02:58:22;;;;;;;41.90;22.10;;;5.90;99.90;;;;;;5117229;28;20040;-77
2022/04/16 03:00:48;;;;;;;40.53;21.60;;;5.90;99.90;;;;;;5117151;28;20048;-78
2022/04/16 03:03:15;;;;;;;37.53;20.00;;;5.90;99.90;;;;;;5117192;28;20459;-78
2022/04/16 03:05:41;;;;;;;38.17;19.95;;;5.90;99.90;;;;;;5117366;28;20054;-78
2022/04/16 03:08:07;;;;;;;41.55;21.50;;;5.90;99.90;;;;;;5117022;28;20071;-79
2022/04/16 03:10:33;;;;;;;35.77;18.57;;;5.90;99.90;;;;;;5116902;28;20043;-80
2022/04/16 03:12:59;;;;;;;34.20;18.35;;;6.00;99.90;;;;;;5116818;27;20052;-78
2022/04/16 03:18:11;;;;;;;35.53;19.05;;;6.10;99.90;;;;;;5116758;28;20463;-79
2022/04/16 03:20:42;;;;;;;39.70;19.30;;;6.10;99.90;;;;;;5116680;28;20048;-78
2022/04/16 03:23:09;;;;;;;35.63;19.00;;;6.20;99.90;;;;;;5116722;28;20096;-78
2022/04/16 03:25:39;;;;;;;39.47;19.52;;;6.30;99.90;;;;;;5116584;28;20044;-79
2022/04/16 03:28:04;;;;;;;34.13;18.58;;;6.30;99.90;;;;;;5116943;28;20147;-78
2022/04/16 03:30:30;;;;;;;33.67;18.58;;;6.40;99.90;;;;;;5116559;28;20075;-78
2022/04/16 03:32:55;;;;;;;37.70;19.42;;;6.50;99.90;;;;;;5116389;28;20048;-79
2022/04/16 03:35:23;;;;;;;30.70;17.98;;;6.60;99.90;;;;;;5116379;28;20395;-77
2022/04/16 03:37:49;;;;;;;30.27;17.52;;;6.60;99.90;;;;;;5116248;28;20051;-79
2022/04/16 03:40:15;;;;;;;31.27;16.90;;;6.70;99.90;;;;;;5116321;28;20050;-77
2022/04/16 03:43:00;;;;;;;32.30;16.17;;;6.70;99.90;;;;;;5116386;28;20435;-79
2022/04/16 03:45:31;;;;;;;27.48;15.82;;;6.80;99.90;;;;;;5116307;28;20047;-78
2022/04/16 03:47:59;;;;;;;26.40;15.52;;;6.80;99.90;;;;;;5116224;28;20059;-79
2022/04/16 03:50:26;;;;;;;31.60;17.10;;;6.90;99.90;;;;;;5116057;28;20090;-77
2022/04/16 03:52:52;;;;;;;;;;;6.90;99.90;;;;;;5116438;27;20417;-77
2022/04/16 04:00:50;;;;;;;24.83;15.27;;;7.00;99.90;;;;;;5115824;28;20047;-78
2022/04/16 04:03:16;;;;;;;26.13;14.75;;;7.10;99.90;;;;;;5115847;28;20040;-78
2022/04/16 04:05:42;;;;;;;26.03;14.77;;;7.10;99.90;;;;;;5116241;28;20036;-78
2022/04/16 04:08:09;;;;;;;25.23;15.60;;;7.10;99.90;;;;;;5115622;28;20475;-78
2022/04/16 04:10:35;;;;;;;28.10;15.30;;;7.10;99.90;;;;;;5115977;28;20044;-79
2022/04/16 04:13:01;;;;;;;26.77;15.25;;;7.10;99.90;;;;;;5115699;28;20108;-77
2022/04/16 04:15:27;;;;;;;24.00;13.70;;;7.10;99.90;;;;;;5115799;28;20083;-78
2022/04/16 04:17:53;;;;;;;22.75;14.05;;;7.10;99.90;;;;;;5116133;28;20415;-76
2022/04/16 04:20:19;;;;;;;26.70;14.43;;;7.20;99.90;;;;;;5115653;28;20092;-77
2022/04/16 04:22:45;;;;;;;25.02;14.23;;;7.10;99.90;;;;;;5115619;28;20047;-77
2022/04/16 04:25:10;;;;;;;24.83;13.60;;;7.20;99.90;;;;;;5115642;28;20066;-79
2022/04/16 04:27:36;;;;;;;20.42;12.88;;;7.20;99.90;;;;;;5115173;28;20039;-78
2022/04/16 04:30:02;;;;;;;22.30;12.77;;;7.20;99.90;;;;;;5115329;28;20050;-77
2022/04/16 04:32:31;;;;;;;22.20;12.88;;;7.20;99.90;;;;;;5115808;28;20092;-76
2022/04/16 04:34:56;;;;;;;22.75;13.00;;;7.20;99.90;;;;;;5115153;28;20036;-76
2022/04/16 04:37:23;;;;;;;24.50;12.98;;;7.30;99.90;;;;;;5115496;28;20090;-78
2022/04/16 04:39:49;;;;;;;22.93;12.70;;;7.30;99.90;;;;;;5115196;28;20047;-77
2022/04/16 04:42:26;;;;;;;22.98;12.80;;;7.30;99.90;;;;;;5115103;28;20052;-78
2022/04/16 04:44:52;;;;;;;19.17;11.80;;;7.30;99.90;;;;;;5114937;28;20036;-77
2022/04/16 04:47:17;;;;;;;25.30;11.73;;;7.30;99.90;;;;;;5115484;28;20048;-77
2022/04/16 04:49:43;;;;;;;21.73;11.80;;;7.30;99.90;;;;;;5114972;28;20520;-79
2022/04/16 04:52:09;;;;;;;20.40;12.13;;;7.30;99.90;;;;;;5113983;28;20164;-79
2022/04/16 04:54:34;;;;;;;21.58;12.13;;;7.30;99.90;;;;;;5114501;28;20043;-77
2022/04/16 04:57:00;;;;;;;20.02;11.98;;;7.40;99.90;;;;;;5114853;28;20051;-78
2022/04/16 04:59:25;;;;;;;20.63;12.43;;;7.40;99.90;;;;;;5114771;28;20044;-77
2022/04/16 05:01:51;;;;;;;20.67;12.50;;;7.40;99.90;;;;;;5114738;28;20043;-79
2022/04/16 05:04:16;;;;;;;22.92;12.15;;;7.40;99.90;;;;;;5114750;28;20127;-78
2022/04/16 05:06:42;;;;;;;21.25;11.30;;;7.40;99.90;;;;;;5113711;28;20040;-76
2022/04/16 05:09:10;;;;;;;23.10;12.50;;;7.40;99.90;;;;;;5114641;28;20043;-78
2022/04/16 05:11:36;;;;;;;20.60;11.43;;;7.40;99.90;;;;;;5113262;28;20399;-77
2022/04/16 05:14:01;;;;;;;21.65;11.88;;;7.40;99.90;;;;;;5114342;28;20035;-77
2022/04/16 05:16:27;;;;;;;24.40;12.82;;;7.40;99.90;;;;;;5114523;28;20440;-79
2022/04/16 05:18:52;;;;;;;20.92;12.20;;;7.30;99.90;;;;;;5114506;28;20038;-79
2022/04/16 05:21:18;;;;;;;21.08;11.98;;;7.30;99.90;;;;;;5114419;28;20050;-77
2022/04/16 05:23:43;;;;;;;22.42;12.90;;;7.30;99.90;;;;;;5114567;28;20051;-78
2022/04/16 05:26:10;;;;;;;26.10;12.93;;;7.30;99.90;;;;;;5114366;28;20044;-78
2022/04/16 05:28:36;;;;;;;20.58;12.27;;;7.30;99.90;;;;;;5114367;28;20373;-76
2022/04/16 05:31:04;;;;;;;24.33;11.82;;;7.20;99.90;;;;;;5114362;28;20425;-77
2022/04/16 05:36:14;;;;;;;24.85;12.95;;;7.40;99.90;;;;;;5114243;28;20483;-79
2022/04/16 05:38:39;;;;;;;24.58;12.32;;;7.40;99.90;;;;;;5114182;28;20036;-78
2022/04/16 05:41:05;;;;;;;27.38;13.55;;;7.40;99.90;;;;;;5114118;28;20040;-79
2022/04/16 05:43:30;;;;;;;24.33;12.05;;;7.50;99.90;;;;;;5114166;28;20038;-78
2022/04/16 05:45:56;;;;;;;25.67;14.52;;;7.50;99.90;;;;;;5114473;28;20226;-78
2022/04/16 05:48:21;;;;;;;21.65;12.02;;;7.50;99.90;;;;;;5114181;28;20047;-77
2022/04/16 05:50:47;;;;;;;20.88;12.07;;;7.50;99.90;;;;;;5112922;28;20044;-77
2022/04/16 05:53:14;;;;;;;22.13;11.57;;;7.60;99.90;;;;;;5114064;28;20079;-78
2022/04/16 05:55:41;;;;;;;;;;;7.60;99.90;;;;;;5113522;28;20540;-78
2022/04/16 05:58:07;;;;;;;20.55;10.73;;;7.70;99.90;;;;;;5114050;28;19920;-79
2022/04/16 06:00:33;;;;;;;20.83;11.18;;;7.70;99.90;;;;;;5113961;28;20391;-77
2022/04/16 06:02:59;;;;;;;18.47;10.50;;;7.80;99.90;;;;;;5114353;28;20429;-77
2022/04/16 06:05:25;;;;;;;20.05;11.00;;;7.80;99.90;;;;;;5113880;28;20337;-79
2022/04/16 06:07:51;;;;;;;18.90;10.52;;;7.90;99.90;;;;;;5113939;28;20050;-79
2022/04/16 06:10:17;;;;;;;18.33;9.83;;;7.90;99.90;;;;;;5113858;28;20110;-77
2022/04/16 06:12:42;;;;;;;21.60;11.00;;;7.90;99.90;;;;;;5114300;28;20055;-78
2022/04/16 06:15:09;;;;;;;20.55;10.20;;;7.90;99.90;;;;;;5114231;28;20491;-77
2022/04/16 06:17:35;;;;;;;17.35;10.00;;;7.90;99.90;;;;;;5113790;28;20079;-77
2022/04/16 06:20:01;;;;;;;18.85;10.15;;;8.00;99.90;;;;;;5118119;28;20082;-78
2022/04/16 06:22:26;;;;;;;18.83;10.35;;;8.00;99.90;;;;;;5118035;28;20509;-76
2022/04/16 06:24:52;;;;;;;17.45;10.25;;;8.10;99.90;;;;;;5117782;28;20124;-77
2022/04/16 06:27:17;;;;;;;18.38;10.02;;;8.10;99.90;;;;;;5117659;28;20040;-78
2022/04/16 06:29:43;;;;;;;19.95;10.25;;;8.30;99.90;;;;;;5117877;28;20039;-76
2022/04/16 06:32:08;;;;;;;17.52;9.70;;;8.40;99.90;;;;;;5117604;28;20050;-76
2022/04/16 06:34:34;;;;;;;16.08;8.90;;;8.50;99.90;;;;;;5099618;28;20120;-77
2022/04/16 06:36:59;;;;;;;15.65;8.60;;;8.60;99.90;;;;;;5117479;28;20039;-78
2022/04/16 06:39:25;;;;;;;14.77;9.27;;;8.60;99.90;;;;;;5117545;28;20062;-77
2022/04/16 06:41:51;;;;;;;15.88;9.35;;;8.70;99.90;;;;;;5117462;28;20050;-78
2022/04/16 06:44:17;;;;;;;16.05;8.52;;;8.70;99.90;;;;;;5116241;28;20040;-78
2022/04/16 06:46:42;;;;;;;15.10;7.68;;;8.80;99.90;;;;;;5117389;28;20043;-77
2022/04/16 06:49:08;;;;;;;15.27;7.45;;;8.90;99.90;;;;;;5117262;28;20052;-79
2022/04/16 06:51:34;;;;;;;13.85;6.80;;;9.00;99.90;;;;;;5117440;28;20043;-78
2022/04/16 06:53:59;;;;;;;16.08;8.52;;;9.10;99.90;;;;;;5117140;28;20036;-78
2022/04/16 06:56:25;;;;;;;12.38;7.53;;;9.20;99.90;;;;;;5117055;28;20126;-79
2022/04/16 06:58:51;;;;;;;14.73;8.13;;;9.20;99.90;;;;;;5117186;28;20062;-79
2022/04/16 07:01:16;;;;;;;13.90;7.70;;;9.30;99.90;;;;;;5116974;28;20043;-78
2022/04/16 07:03:42;;;;;;;10.88;7.07;;;9.30;99.90;;;;;;5117036;28;20104;-77
2022/04/16 07:06:07;;;;;;;12.07;7.25;;;9.40;99.90;;;;;;5116965;28;20043;-76
2022/04/16 07:08:33;;;;;;;12.55;7.03;;;9.50;99.90;;;;;;5117064;28;20062;-78
2022/04/16 07:10:58;;;;;;;14.68;6.95;;;9.60;99.90;;;;;;5115734;28;20059;-78
2022/04/16 07:13:24;;;;;;;13.35;6.78;;;9.60;99.90;;;;;;5116860;28;20067;-78
2022/04/16 07:15:49;;;;;;;10.57;6.32;;;9.70;99.90;;;;;;5116788;28;20051;-79
2022/04/16 07:18:15;;;;;;;11.88;6.38;;;9.60;99.90;;;;;;5117152;28;20131;-78
2022/04/16 07:20:42;;;;;;;11.93;6.05;;;9.60;99.90;;;;;;5116699;28;20082;-79
2022/04/16 07:23:08;;;;;;;;;;;9.60;99.90;;;;;;5117393;28;20045;-80
2022/04/16 07:25:34;;;;;;;10.68;5.75;;;9.70;99.90;;;;;;5116703;27;20385;-77
2022/04/16 07:28:00;;;;;;;11.80;5.97;;;9.70;99.90;;;;;;5115638;28;20499;-76
2022/04/16 07:30:27;;;;;;;8.43;5.20;;;9.70;99.90;;;;;;5115420;28;20051;-79
2022/04/16 07:32:53;;;;;;;;;;;9.80;99.90;;;;;;5115898;28;20480;-76
2022/04/16 07:35:18;;;;;;;8.18;4.68;;;9.70;99.90;;;;;;5116309;28;19927;-77
2022/04/16 07:37:44;;;;;;;11.30;5.00;;;9.80;99.90;;;;;;5116421;28;20039;-80
2022/04/16 07:40:10;;;;;;;9.07;4.40;;;9.90;99.90;;;;;;5116346;28;20372;-79
2022/04/16 07:42:35;;;;;;;9.65;4.35;;;9.90;99.90;;;;;;5115862;28;20047;-79
2022/04/16 07:45:01;;;;;;;7.45;4.05;;;10.00;99.90;;;;;;5116648;28;20047;-77
2022/04/16 07:47:27;;;;;;;8.93;4.20;;;10.10;99.90;;;;;;5115148;28;20062;-77
2022/04/16 07:49:52;;;;;;;9.40;4.57;;;10.10;99.90;;;;;;5116196;28;20152;-78
2022/04/16 07:52:18;;;;;;;8.98;4.40;;;10.20;99.90;;;;;;5116039;28;20479;-78
2022/04/16 07:54:43;;;;;;;6.97;3.95;;;10.20;99.90;;;;;;5115941;28;20044;-77
2022/04/16 07:57:09;;;;;;;6.65;3.83;;;10.10;99.90;;;;;;5115985;28;20047;-78
2022/04/16 07:59:35;;;;;;;7.97;3.60;;;10.20;99.90;;;;;;5115958;27;20562;-79
2022/04/16 08:02:00;;;;;;;5.65;3.05;;;10.20;99.90;;;;;;5116005;28;20524;-79
2022/04/16 08:04:26;;;;;;;5.80;3.42;;;10.20;99.90;;;;;;5115913;28;20049;-77
2022/04/16 08:06:51;;;;;;;7.18;3.42;;;10.30;99.90;;;;;;5116008;28;20056;-78
2022/04/16 08:09:18;;;;;;;6.35;3.45;;;10.30;99.90;;;;;;5115767;28;20092;-79
2022/04/16 08:11:46;;;;;;;5.20;3.22;;;10.30;99.90;;;;;;5115695;28;20047;-79
2022/04/16 08:14:12;;;;;;;5.32;3.08;;;10.40;99.90;;;;;;5116308;28;20491;-79
2022/04/16 08:16:38;;;;;;;4.20;2.72;;;10.50;99.90;;;;;;5115500;28;20368;-80
2022/04/16 08:19:03;;;;;;;6.13;2.60;;;10.40;99.90;;;;;;5115868;28;20121;-80
2022/04/16 08:21:30;;;;;;;4.93;2.97;;;10.50;99.90;;;;;;5114620;28;20046;-77
2022/04/16 08:24:04;;;;;;;;;;;10.50;99.90;;;;;;5116052;28;20408;-79
2022/04/16 08:26:30;;;;;;;4.35;2.72;;;10.50;99.90;;;;;;5115365;28;19919;-80
2022/04/16 08:28:56;;;;;;;4.18;2.63;;;10.50;99.90;;;;;;5114210;28;20544;-79
2022/04/16 08:31:21;;;;;;;6.18;2.70;;;10.70;99.90;;;;;;5115673;28;20130;-80
2022/04/16 08:33:47;;;;;;;8.50;2.63;;;10.70;99.90;;;;;;5115149;28;20036;-77
2022/04/16 08:36:12;;;;;;;5.85;2.45;;;10.80;99.90;;;;;;5114488;28;20100;-78
2022/04/16 08:38:38;;;;;;;6.30;2.13;;;10.90;99.90;;;;;;5115327;28;20101;-79
2022/04/16 08:41:05;;;;;;;3.90;2.10;;;11.00;99.90;;;;;;5114844;28;20040;-78
2022/04/16 08:43:33;;;;;;;4.75;1.92;;;11.10;99.90;;;;;;5115141;28;20040;-79
2022/04/16 08:46:00;;;;;;;4.00;2.38;;;11.10;99.90;;;;;;5115095;28;20048;-77
2022/04/16 08:48:25;;;;;;;4.88;1.98;;;11.10;99.90;;;;;;5114987;28;20090;-81
2022/04/16 08:50:51;;;;;;;5.53;2.45;;;11.20;99.90;;;;;;5114895;28;20047;-79
2022/04/16 08:53:17;;;;;;;3.70;2.00;;;11.40;99.90;;;;;;5113865;28;20055;-78
2022/04/16 08:55:42;;;;;;;5.00;1.80;;;11.50;99.90;;;;;;5114839;28;20050;-77
2022/04/16 08:58:08;;;;;;;3.70;1.92;;;11.50;99.90;;;;;;5113690;28;20059;-79
2022/04/16 09:00:33;;;;;;;8.75;2.17;;;11.40;99.90;;;;;;5114761;28;20040;-76
2022/04/16 09:03:03;;;;;;;3.85;2.15;;;11.50;99.90;;;;;;5114769;28;20047;-78
2022/04/16 09:05:29;;;;;;;2.55;1.60;;;11.50;99.90;;;;;;5114676;28;20403;-80
2022/04/16 09:07:56;;;;;;;3.28;1.95;;;11.50;99.90;;;;;;5114786;28;20044;-77
2022/04/16 09:10:25;;;;;;;5.45;2.00;;;11.50;99.90;;;;;;5114596;28;20039;-77
2022/04/16 09:12:52;;;;;;;4.18;1.75;;;11.60;99.90;;;;;;5115052;28;20058;-78
2022/04/16 09:15:18;;;;;;;2.42;1.52;;;11.60;99.90;;;;;;5114301;28;20085;-79
2022/04/16 09:18:01;;;;;;;3.17;1.93;;;11.70;99.90;;;;;;5114534;28;20079;-77
2022/04/16 09:20:37;;;;;;;3.38;1.60;;;11.70;99.90;;;;;;5114544;28;20135;-80
2022/04/16 09:23:17;;;;;;;6.05;1.80;;;11.70;99.90;;;;;;5114659;28;20449;-78
2022/04/16 09:25:45;;;;;;;4.28;1.95;;;11.70;99.90;;;;;;5114382;28;20080;-78
2022/04/16 09:28:14;;;;;;;3.88;1.52;;;11.90;99.90;;;;;;5114477;28;20051;-79
2022/04/16 09:30:48;;;;;;;2.92;1.30;;;11.90;99.90;;;;;;5114276;28;20431;-78
2022/04/16 09:33:14;;;;;;;5.65;1.63;;;11.90;99.90;;;;;;5114240;28;20441;-79
2022/04/16 09:35:40;;;;;;;1.92;0.93;;;12.00;99.90;;;;;;5114156;28;20050;-76
2022/04/16 09:38:10;;;;;;;3.38;1.25;;;12.00;96.50;;;;;;5114252;28;20059;-78
2022/04/16 09:40:36;;;;;;;1.77;0.90;;;12.00;96.30;;;;;;5114190;28;20036;-80
2022/04/16 09:43:04;;;;;;;2.03;1.00;;;12.10;94.30;;;;;;5114152;28;20384;-79
2022/04/16 09:45:30;;;;;;;5.25;1.10;;;12.20;94.30;;;;;;5114156;28;20285;-76
2022/04/16 09:47:57;;;;;;;2.17;1.00;;;12.40;94.30;;;;;;5115106;28;20040;-78
2022/04/16 09:50:29;;;;;;;1.85;0.90;;;12.50;94.40;;;;;;5114161;28;20131;-78
2022/04/16 09:53:01;;;;;;;2.17;1.05;;;12.60;95.40;;;;;;5114602;28;20100;-79
2022/04/16 09:55:27;;;;;;;1.90;1.08;;;12.60;91.00;;;;;;5118641;28;20043;-78
2022/04/16 09:57:57;;;;;;;1.80;1.00;;;12.70;93.80;;;;;;5118430;28;20047;-79
2022/04/16 10:00:24;;;;;;;1.48;0.90;;;12.60;91.90;;;;;;5118272;28;20050;-77
2022/04/16 10:02:50;;;;;;;5.57;1.30;;;12.60;93.70;;;;;;5118428;28;20044;-81
2022/04/16 10:05:16;;;;;;;3.13;1.50;;;12.70;93.90;;;;;;5117405;28;20044;-78
2022/04/16 10:07:44;;;;;;;1.80;0.90;;;12.70;94.90;;;;;;5118252;28;20051;-78
2022/04/16 10:10:17;;;;;;;2.13;0.90;;;12.70;91.70;;;;;;5118074;28;20047;-80
2022/04/16 10:13:04;;;;;;;1.70;0.93;;;12.80;91.60;;;;;;5117761;28;20491;-81
2022/04/16 10:15:53;;;;;;;3.58;1.20;;;12.80;90.80;;;;;;5117995;28;20055;-79
2022/04/16 10:18:19;;;;;;;7.45;0.95;;;12.80;90.70;;;;;;5118417;28;20112;-80
2022/04/16 10:21:00;;;;;;;1.88;0.80;;;12.70;90.00;;;;;;5118001;28;20051;-78
2022/04/16 10:23:37;;;;;;;2.80;1.02;;;12.90;90.50;;;;;;5117869;28;20040;-78
2022/04/16 10:26:11;;;;;;;3.25;0.90;;;13.20;90.40;;;;;;5117819;28;20073;-78
2022/04/16 10:28:58;;;;;;;2.15;0.80;;;13.20;85.80;;;;;;5117730;28;20130;-77
2022/04/16 10:31:28;;;;;;;1.80;1.10;;;13.20;88.20;;;;;;5117242;28;20091;-80
2022/04/16 10:34:05;;;;;;;2.55;0.80;;;13.30;88.10;;;;;;5117551;28;20035;-81
2022/04/16 10:36:36;;;;;;;1.48;0.82;;;13.20;87.70;;;;;;5117588;28;20043;-78
2022/04/16 10:39:13;;;;;;;3.65;0.90;;;13.40;90.30;;;;;;5118153;28;20466;-80
2022/04/16 10:41:38;;;;;;;2.78;1.10;;;13.30;89.00;;;;;;5117666;28;20047;-79
2022/04/16 10:44:08;;;;;;;2.72;1.15;;;13.20;87.60;;;;;;5117357;28;20160;-79
2022/04/16 10:46:49;;;;;;;3.55;1.00;;;13.30;90.50;;;;;;5116434;28;20035;-81
2022/04/16 10:49:16;;;;;;;2.50;1.10;;;13.30;87.00;;;;;;5117227;28;20502;-77
2022/04/16 10:51:42;;;;;;;3.35;1.08;;;13.30;90.90;;;;;;5117003;28;20510;-80
2022/04/16 10:54:10;;;;;;;1.38;0.90;;;13.40;90.30;;;;;;5117529;28;20031;-80
2022/04/16 10:56:39;;;;;;;2.38;1.02;;;13.30;85.30;;;;;;5117327;28;20386;-80
2022/04/16 10:59:10;;;;;;;2.92;0.88;;;13.40;87.40;;;;;;5117156;28;20048;-78
2022/04/16 11:01:37;;;;;;;1.88;1.10;;;13.50;85.90;;;;;;5117149;28;20123;-80
2022/04/16 11:04:13;;;;;;;2.50;0.90;;;13.60;83.70;;;;;;5117112;28;20035;-77
2022/04/16 11:06:48;;;;;;;2.58;0.85;;;13.70;84.90;;;;;;5117043;28;20372;-80
2022/04/16 11:09:18;;;;;;;2.53;0.95;;;13.80;85.20;;;;;;5117054;27;20039;-78
2022/04/16 11:11:43;;;;;;;1.27;0.85;;;13.70;83.30;;;;;;5117185;28;20091;-80
2022/04/16 11:14:10;;;;;;;3.72;0.93;;;13.60;86.40;;;;;;5115831;28;20087;-80
2022/04/16 11:16:48;;;;;;;4.03;1.20;;;13.60;85.00;;;;;;5116971;28;20373;-81
2022/04/16 11:19:15;;;;;;;2.53;1.08;;;13.80;86.40;;;;;;5116511;28;20051;-79
2022/04/16 11:21:42;;;;;;;2.00;0.93;;;13.90;86.80;;;;;;5115443;28;20504;-80
2022/04/16 11:24:08;;;;;;;1.83;1.00;;;14.00;87.00;;;;;;5116548;28;20044;-80
2022/04/16 11:34:56;;;;;;;2.88;1.10;;;14.20;83.40;;;;;;5116414;28;20044;-79
2022/04/16 11:37:21;;;;;;;2.15;1.00;;;14.20;85.30;;;;;;5115542;28;20047;-77
2022/04/16 11:39:58;;;;;;;2.50;0.90;;;14.30;83.10;;;;;;5116346;28;20049;-80
2022/04/16 11:42:26;;;;;;;1.50;0.88;;;14.20;82.30;;;;;;5116644;28;20044;-79
2022/04/16 11:44:52;;;;;;;2.70;1.10;;;14.10;79.30;;;;;;5115369;28;20054;-80
2022/04/16 11:47:23;;;;;;;1.67;0.90;;;14.10;81.50;;;;;;5098360;28;20161;-79
2022/04/16 11:49:51;;;;;;;2.20;1.10;;;14.10;83.60;;;;;;5116159;28;20047;-80
2022/04/16 11:52:26;;;;;;;4.57;1.23;;;14.10;79.00;;;;;;5116460;28;20047;-80
2022/04/16 11:55:14;;;;;;;1.25;0.93;;;14.20;84.00;;;;;;5116142;28;20081;-79
2022/04/16 11:57:45;;;;;;;5.15;1.05;;;14.30;82.30;;;;;;5115809;28;20550;-79
2022/04/16 12:00:11;;;;;;;2.78;1.17;;;14.40;81.90;;;;;;5115995;28;20050;-80
2022/04/16 12:02:39;;;;;;;1.58;0.75;;;14.50;82.80;;;;;;5116278;28;20047;-77
2022/04/16 12:05:13;;;;;;;2.95;1.00;;;14.60;82.80;;;;;;5115881;27;20111;-80
2022/04/16 12:07:44;;;;;;;2.63;0.93;;;14.80;78.10;;;;;;5115927;28;20040;-79
2022/04/16 12:10:13;;;;;;;1.88;1.05;;;14.90;78.50;;;;;;5115765;28;20141;-79
2022/04/16 12:12:56;;;;;;;2.90;1.00;;;14.80;82.00;;;;;;5116115;28;20052;-79
2022/04/16 12:15:24;;;;;;;1.50;0.90;;;14.90;78.90;;;;;;5115707;28;20440;-79
2022/04/16 12:17:54;;;;;;;2.35;0.80;;;14.80;76.70;;;;;;5115352;28;20051;-80
2022/04/16 12:20:21;;;;;;;1.85;0.90;;;14.90;77.70;;;;;;5115568;28;20047;-78
2022/04/16 12:22:59;;;;;;;2.80;0.88;;;15.00;76.40;;;;;;5115528;28;20112;-79
2022/04/16 12:25:25;;;;;;;2.08;1.00;;;14.70;73.00;;;;;;5114497;28;20136;-79
2022/04/16 12:27:56;;;;;;;1.15;0.70;;;14.90;76.10;;;;;;5115443;28;20044;-80
2022/04/16 12:30:26;;;;;;;1.50;0.95;;;15.00;78.30;;;;;;5115059;28;20575;-80
2022/04/16 12:33:11;;;;;;;1.55;0.82;;;14.90;74.80;;;;;;5115479;27;20054;-79
2022/04/16 12:35:40;;;;;;;1.40;0.90;;;14.90;74.40;;;;;;5115355;28;20071;-79
2022/04/16 12:38:07;;;;;;;2.80;1.00;;;15.00;76.60;;;;;;5115153;28;20047;-78
2022/04/16 12:40:34;;;;;;;1.30;0.90;;;15.00;73.60;;;;;;5115250;28;20047;-79
2022/04/16 12:43:00;;;;;;;;;;;15.00;76.40;;;;;;5114487;28;20562;-79
2022/04/16 12:45:28;;;;;;;3.47;0.93;;;15.10;77.40;;;;;;5115131;28;19978;-78
2022/04/16 12:47:55;;;;;;;2.20;1.00;;;15.30;76.40;;;;;;5115161;28;20456;-79
2022/04/16 12:50:21;;;;;;;2.67;1.00;;;15.30;75.50;;;;;;5115140;28;20083;-77
2022/04/16 12:52:47;;;;;;;1.93;1.00;;;15.40;74.80;;;;;;5115501;28;20084;-78
2022/04/16 12:55:14;;;;;;;2.22;0.80;;;15.30;74.30;;;;;;5114880;28;20044;-78
2022/04/16 12:57:40;;;;;;;1.70;0.93;;;15.30;75.50;;;;;;5114513;28;20491;-78
2022/04/16 13:00:09;;;;;;;1.67;0.97;;;15.50;76.10;;;;;;5114703;28;20039;-78
2022/04/16 13:02:37;;;;;;;1.52;1.00;;;15.40;73.80;;;;;;5115224;28;20089;-79
2022/04/16 13:05:03;;;;;;;4.28;1.20;;;15.40;75.70;;;;;;5115161;28;20395;-80
2022/04/16 13:07:29;;;;;;;1.93;0.80;;;15.50;73.60;;;;;;5115151;28;20139;-78
2022/04/16 13:09:54;;;;;;;2.17;1.00;;;15.50;75.00;;;;;;5114587;28;20079;-77